Sandra Hugh — WDD9019 — position and weather

sailwx.info

Track history (hours):
 
Tides and Currents Weather Stations Pressure Air Temp Water Temp Dewpoint Dewpoint Depression Visibility Wind Speed Wind Dir Waves Ship Positions

Sandra Hugh

Owner: Sortwell Inc., DBA AmNav Maritime Services, Oakland, CA. More information available from US FCC via Universal Licensing System and Coast Guard Vessel Documentation Center.

Last reported at 2017-Jan-20 13:34 UTC. Time now 2017-Jan-20 14:04 UTC.
Position N 37°46' W 122°18'.

Length 24 m; draft 4.9 m.

Type: Tug. MMSI: 367305920.

Date/timePositionNaut miles runAvg speedWind from/ knotsBaromVisibWave heightAir tempDewpointWater temp
2017-Jan-20 13:34N 37°46' W 122°18'3 2.9
2017-Jan-20 12:33N 37°49' W 122°19'0 0.0
2017-Jan-20 11:33N 37°49' W 122°19'0 0.0
2017-Jan-20 10:33N 37°49' W 122°19'0 0.0
2017-Jan-20 09:33N 37°49' W 122°19'0 0.0
2017-Jan-20 08:33N 37°49' W 122°19'0 0.0
2017-Jan-20 07:33N 37°49' W 122°19'0 0.0
2017-Jan-20 06:34N 37°49' W 122°19'0 0.0
2017-Jan-20 05:33N 37°49' W 122°19'0 0.0
2017-Jan-20 04:33N 37°49' W 122°19'0 0.0
2017-Jan-20 03:33N 37°49' W 122°19'0 0.0
2017-Jan-20 02:33N 37°49' W 122°19'0 0.0
2017-Jan-20 01:33N 37°49' W 122°19'0 0.0
2017-Jan-20 00:33N 37°49' W 122°19'0 0.0
2017-Jan-19 23:33N 37°49' W 122°19'0 0.0
2017-Jan-19 22:33N 37°49' W 122°19'0 0.0
2017-Jan-19 21:33N 37°49' W 122°19'0 0.0
2017-Jan-19 20:33N 37°49' W 122°19'0 0.0
2017-Jan-19 19:33N 37°49' W 122°19'0 0.0
2017-Jan-19 18:33N 37°49' W 122°19'0 0.0
2017-Jan-19 17:33N 37°49' W 122°19'0 0.0
2017-Jan-19 16:33N 37°49' W 122°19'0 0.0
2017-Jan-19 15:33N 37°49' W 122°19'2 1.7
2017-Jan-19 14:34N 37°48' W 122°18'1 0.8
2017-Jan-19 13:34N 37°48' W 122°19'2 2.1
2017-Jan-19 12:33N 37°48' W 122°22'2 1.9
2017-Jan-19 11:34N 37°49' W 122°20'0 0.0
2017-Jan-19 10:34N 37°49' W 122°20'0 0.0
2017-Jan-19 09:33N 37°49' W 122°20'0 0.0
2017-Jan-19 08:33N 37°49' W 122°20'0 0.0
2017-Jan-19 07:33N 37°49' W 122°20'2 2.0
2017-Jan-19 06:33N 37°48' W 122°18'1 0.7
2017-Jan-19 05:33N 37°48' W 122°19'0 0.4
2017-Jan-19 04:34N 37°48' W 122°19'2 1.6
2017-Jan-19 03:33N 37°49' W 122°19'0 0.0
2017-Jan-19 02:33N 37°49' W 122°19'0 0.0
2017-Jan-19 01:33N 37°49' W 122°19'0 0.0
2017-Jan-19 00:33N 37°49' W 122°19'2 1.6
2017-Jan-18 23:34N 37°48' W 122°20'2 1.6
2017-Jan-18 22:33N 37°49' W 122°19'0 0.0
2017-Jan-18 21:34N 37°49' W 122°19'0 0.0
2017-Jan-18 20:34N 37°49' W 122°19'0 0.0
2017-Jan-18 19:34N 37°49' W 122°19'0 0.0
2017-Jan-18 18:33N 37°49' W 122°19'0 0.0
2017-Jan-18 17:34N 37°49' W 122°19'0 0.0
2017-Jan-18 16:33N 37°49' W 122°19'0 0.0
2017-Jan-18 15:33N 37°49' W 122°19'0 0.0
2017-Jan-18 14:33N 37°49' W 122°19'0 0.0
2017-Jan-18 13:34N 37°49' W 122°19'0 0.0
2017-Jan-18 12:34N 37°49' W 122°19'2 2.0
2017-Jan-18 11:34N 37°48' W 122°18'2 1.8
2017-Jan-18 10:34N 37°48' W 122°20'2 1.7
2017-Jan-18 09:33N 37°49' W 122°19'0 0.0
2017-Jan-18 08:33N 37°49' W 122°19'0 0.0
2017-Jan-18 07:33N 37°49' W 122°19'0 0.0
2017-Jan-18 06:33N 37°49' W 122°19'0 0.0
2017-Jan-18 05:33N 37°49' W 122°19'0 0.0
2017-Jan-18 04:34N 37°49' W 122°19'0 0.0
2017-Jan-18 03:33N 37°49' W 122°19'2 1.6
2017-Jan-18 02:33N 37°48' W 122°19'0 0.2
2017-Jan-18 01:34N 37°48' W 122°19'0 0.4
2017-Jan-18 00:33N 37°48' W 122°19'0 0.1
2017-Jan-17 23:34N 37°48' W 122°20'2 1.7
2017-Jan-17 22:34N 37°49' W 122°19'0 0.0
2017-Jan-17 21:33N 37°49' W 122°19'0 0.0
2017-Jan-17 20:33N 37°49' W 122°19'0 0.0
2017-Jan-17 19:33N 37°49' W 122°19'0 0.0
2017-Jan-17 18:33N 37°49' W 122°19'0 0.0
2017-Jan-17 17:33N 37°49' W 122°19'0 0.0
2017-Jan-17 16:33N 37°49' W 122°19'0 0.0
2017-Jan-17 15:33N 37°49' W 122°19'0 0.0
2017-Jan-17 14:33N 37°49' W 122°19'0 0.0
2017-Jan-17 13:33N 37°49' W 122°19'0 0.0
2017-Jan-17 12:33N 37°49' W 122°19'0 0.0
2017-Jan-17 11:33N 37°49' W 122°19'0 0.0
2017-Jan-17 10:34N 37°49' W 122°19'0 0.0
2017-Jan-17 09:34N 37°49' W 122°19'0 0.0
2017-Jan-17 08:33N 37°49' W 122°19'0 0.0
2017-Jan-17 07:33N 37°49' W 122°19'0 0.0
2017-Jan-17 06:33N 37°49' W 122°19'0 0.0
2017-Jan-17 05:33N 37°49' W 122°19'0 0.0
2017-Jan-17 04:33N 37°49' W 122°19'2 2.1
2017-Jan-17 03:34N 37°48' W 122°17'1 0.9
2017-Jan-17 02:33N 37°48' W 122°18'0 0.3
2017-Jan-17 01:34N 37°48' W 122°19'1 1.1
2017-Jan-17 00:33N 37°49' W 122°19'1 0.9
2017-Jan-16 23:34N 37°49' W 122°19'0 0.0
2017-Jan-16 22:33N 37°49' W 122°19'0 0.0
2017-Jan-16 21:33N 37°49' W 122°19'0 0.0
2017-Jan-16 20:34N 37°49' W 122°19'0 0.0
2017-Jan-16 19:33N 37°49' W 122°19'0 0.0
2017-Jan-16 18:34N 37°49' W 122°19'0 0.0
2017-Jan-16 17:33N 37°49' W 122°19'0 0.0
2017-Jan-16 16:34N 37°49' W 122°19'0 0.0
2017-Jan-16 15:34N 37°49' W 122°19'1 1.2
2017-Jan-16 14:33N 37°49' W 122°20'6 6.4
2017-Jan-16 13:33N 37°55' W 122°23'1 1.2
2017-Jan-16 12:34N 37°55' W 122°22'0 0.2
2017-Jan-16 11:33N 37°55' W 122°22'6 6.0
2017-Jan-16 10:33N 38°01' W 122°23'12 0.4
2017-Jan-15 00:25N 38°02' W 122°08'1 0.1
2017-Jan-14 19:06N 38°03' W 122°08'1 0.4
2017-Jan-14 17:16N 38°02' W 122°08'0 0.2
2017-Jan-14 16:34N 38°02' W 122°08'1 0.2
2017-Jan-14 13:25N 38°02' W 122°08'0 0.0
2017-Jan-14 12:31N 38°02' W 122°08'0 0.0
2017-Jan-14 11:32N 38°02' W 122°08'0 0.0
2017-Jan-14 10:08N 38°02' W 122°08'0 0.0
2017-Jan-14 09:32N 38°02' W 122°08'0 0.0
2017-Jan-14 08:33N 38°02' W 122°08'0 0.0
2017-Jan-14 07:21N 38°02' W 122°08'0 0.0
2017-Jan-13 20:33N 38°02' W 122°08'0 0.4
2017-Jan-13 19:18N 38°03' W 122°08'2 1.8
2017-Jan-13 18:14N 38°02' W 122°10'1 0.8
2017-Jan-13 16:33N 38°02' W 122°08'6 6.6
2017-Jan-13 15:34N 38°03' W 122°16'8 8.4
2017-Jan-13 14:33N 37°59' W 122°25'5 4.6
2017-Jan-13 13:34N 37°54' W 122°23'0 0.0
2017-Jan-13 12:33N 37°55' W 122°23'0 0.0
2017-Jan-13 11:33N 37°55' W 122°23'1 1.2
2017-Jan-13 10:33N 37°55' W 122°22'2 2.4
2017-Jan-13 09:33N 37°55' W 122°25'0 0.2
2017-Jan-13 08:33N 37°55' W 122°25'8 7.8
2017-Jan-13 07:34N 37°49' W 122°20'2 1.5
2017-Jan-13 06:33N 37°49' W 122°19'0 0.0
2017-Jan-13 05:33N 37°49' W 122°19'0 0.0
2017-Jan-13 04:33N 37°49' W 122°19'0 0.0
2017-Jan-13 03:34N 37°49' W 122°19'0 0.0
2017-Jan-13 02:33N 37°49' W 122°19'1 1.1
2017-Jan-13 01:33N 37°49' W 122°20'2 2.4
2017-Jan-13 00:33N 37°48' W 122°17'2 2.2
2017-Jan-12 23:34N 37°49' W 122°19'1 0.6
2017-Jan-12 22:33N 37°49' W 122°19'2 1.6
2017-Jan-12 21:34N 37°48' W 122°20'2 1.7
2017-Jan-12 20:33N 37°49' W 122°19'0 0.0
2017-Jan-12 19:33N 37°49' W 122°19'0 0.0
2017-Jan-12 18:33N 37°49' W 122°19'2 2.0
2017-Jan-12 17:34N 37°48' W 122°18'1 1.0
2017-Jan-12 16:33N 37°48' W 122°19'1 1.3
2017-Jan-12 15:33N 37°49' W 122°19'0 0.3
2017-Jan-12 14:33N 37°49' W 122°20'1 0.7
2017-Jan-12 13:34N 37°48' W 122°21'0 0.0
2017-Jan-12 12:33N 37°48' W 122°21'1 0.7
2017-Jan-12 11:33N 37°49' W 122°20'5 4.8
2017-Jan-12 10:33N 37°44' W 122°21'6 6.2
2017-Jan-12 09:33N 37°50' W 122°24'10 9.8
2017-Jan-12 08:33N 37°59' W 122°25'8 8.2
2017-Jan-12 07:33N 38°04' W 122°17'7 0.7
2017-Jan-11 21:33N 38°02' W 122°08'0 0.0
2017-Jan-11 20:15N 38°02' W 122°08'5 5.4
2017-Jan-11 19:24N 38°04' W 122°13'4 1.1
2017-Jan-11 15:27N 38°02' W 122°08'  
Track history (hours):
 
Tides and Currents Weather Stations Pressure Air Temp Water Temp Dewpoint Dewpoint Depression Visibility Wind Speed Wind Dir Waves Ship Positions

Sandra Hugh

Owner: Sortwell Inc., DBA AmNav Maritime Services, Oakland, CA. More information available from US FCC via Universal Licensing System and Coast Guard Vessel Documentation Center.

Last reported at 2017-Jan-20 13:34 UTC. Time now 2017-Jan-20 14:04 UTC.
Position N 37°46' W 122°18'.

Length 24 m; draft 4.9 m.

Type: Tug. MMSI: 367305920.

Date/timePositionNaut miles runAvg speedWind from/ knotsBaromVisibWave heightAir tempDewpointWater temp
2017-Jan-20 13:34N 37°46' W 122°18'3 2.9
2017-Jan-20 12:33N 37°49' W 122°19'0 0.0
2017-Jan-20 11:33N 37°49' W 122°19'0 0.0
2017-Jan-20 10:33N 37°49' W 122°19'0 0.0
2017-Jan-20 09:33N 37°49' W 122°19'0 0.0
2017-Jan-20 08:33N 37°49' W 122°19'0 0.0
2017-Jan-20 07:33N 37°49' W 122°19'0 0.0
2017-Jan-20 06:34N 37°49' W 122°19'0 0.0
2017-Jan-20 05:33N 37°49' W 122°19'0 0.0
2017-Jan-20 04:33N 37°49' W 122°19'0 0.0
2017-Jan-20 03:33N 37°49' W 122°19'0 0.0
2017-Jan-20 02:33N 37°49' W 122°19'0 0.0
2017-Jan-20 01:33N 37°49' W 122°19'0 0.0
2017-Jan-20 00:33N 37°49' W 122°19'0 0.0
2017-Jan-19 23:33N 37°49' W 122°19'0 0.0
2017-Jan-19 22:33N 37°49' W 122°19'0 0.0
2017-Jan-19 21:33N 37°49' W 122°19'0 0.0
2017-Jan-19 20:33N 37°49' W 122°19'0 0.0
2017-Jan-19 19:33N 37°49' W 122°19'0 0.0
2017-Jan-19 18:33N 37°49' W 122°19'0 0.0
2017-Jan-19 17:33N 37°49' W 122°19'0 0.0
2017-Jan-19 16:33N 37°49' W 122°19'0 0.0
2017-Jan-19 15:33N 37°49' W 122°19'2 1.7
2017-Jan-19 14:34N 37°48' W 122°18'1 0.8
2017-Jan-19 13:34N 37°48' W 122°19'2 2.1
2017-Jan-19 12:33N 37°48' W 122°22'2 1.9
2017-Jan-19 11:34N 37°49' W 122°20'0 0.0
2017-Jan-19 10:34N 37°49' W 122°20'0 0.0
2017-Jan-19 09:33N 37°49' W 122°20'0 0.0
2017-Jan-19 08:33N 37°49' W 122°20'0 0.0
2017-Jan-19 07:33N 37°49' W 122°20'2 2.0
2017-Jan-19 06:33N 37°48' W 122°18'1 0.7
2017-Jan-19 05:33N 37°48' W 122°19'0 0.4
2017-Jan-19 04:34N 37°48' W 122°19'2 1.6
2017-Jan-19 03:33N 37°49' W 122°19'0 0.0
2017-Jan-19 02:33N 37°49' W 122°19'0 0.0
2017-Jan-19 01:33N 37°49' W 122°19'0 0.0
2017-Jan-19 00:33N 37°49' W 122°19'2 1.6
2017-Jan-18 23:34N 37°48' W 122°20'2 1.6
2017-Jan-18 22:33N 37°49' W 122°19'0 0.0
2017-Jan-18 21:34N 37°49' W 122°19'0 0.0
2017-Jan-18 20:34N 37°49' W 122°19'0 0.0
2017-Jan-18 19:34N 37°49' W 122°19'0 0.0
2017-Jan-18 18:33N 37°49' W 122°19'0 0.0
2017-Jan-18 17:34N 37°49' W 122°19'0 0.0
2017-Jan-18 16:33N 37°49' W 122°19'0 0.0
2017-Jan-18 15:33N 37°49' W 122°19'0 0.0
2017-Jan-18 14:33N 37°49' W 122°19'0 0.0
2017-Jan-18 13:34N 37°49' W 122°19'0 0.0
2017-Jan-18 12:34N 37°49' W 122°19'2 2.0
2017-Jan-18 11:34N 37°48' W 122°18'2 1.8
2017-Jan-18 10:34N 37°48' W 122°20'2 1.7
2017-Jan-18 09:33N 37°49' W 122°19'0 0.0
2017-Jan-18 08:33N 37°49' W 122°19'0 0.0
2017-Jan-18 07:33N 37°49' W 122°19'0 0.0
2017-Jan-18 06:33N 37°49' W 122°19'0 0.0
2017-Jan-18 05:33N 37°49' W 122°19'0 0.0
2017-Jan-18 04:34N 37°49' W 122°19'0 0.0
2017-Jan-18 03:33N 37°49' W 122°19'2 1.6
2017-Jan-18 02:33N 37°48' W 122°19'0 0.2
2017-Jan-18 01:34N 37°48' W 122°19'0 0.4
2017-Jan-18 00:33N 37°48' W 122°19'0 0.1
2017-Jan-17 23:34N 37°48' W 122°20'2 1.7
2017-Jan-17 22:34N 37°49' W 122°19'0 0.0
2017-Jan-17 21:33N 37°49' W 122°19'0 0.0
2017-Jan-17 20:33N 37°49' W 122°19'0 0.0
2017-Jan-17 19:33N 37°49' W 122°19'0 0.0
2017-Jan-17 18:33N 37°49' W 122°19'0 0.0
2017-Jan-17 17:33N 37°49' W 122°19'0 0.0
2017-Jan-17 16:33N 37°49' W 122°19'0 0.0
2017-Jan-17 15:33N 37°49' W 122°19'0 0.0
2017-Jan-17 14:33N 37°49' W 122°19'0 0.0
2017-Jan-17 13:33N 37°49' W 122°19'0 0.0
2017-Jan-17 12:33N 37°49' W 122°19'0 0.0
2017-Jan-17 11:33N 37°49' W 122°19'0 0.0
2017-Jan-17 10:34N 37°49' W 122°19'0 0.0
2017-Jan-17 09:34N 37°49' W 122°19'0 0.0
2017-Jan-17 08:33N 37°49' W 122°19'0 0.0
2017-Jan-17 07:33N 37°49' W 122°19'0 0.0
2017-Jan-17 06:33N 37°49' W 122°19'0 0.0
2017-Jan-17 05:33N 37°49' W 122°19'0 0.0
2017-Jan-17 04:33N 37°49' W 122°19'2 2.1
2017-Jan-17 03:34N 37°48' W 122°17'1 0.9
2017-Jan-17 02:33N 37°48' W 122°18'0 0.3
2017-Jan-17 01:34N 37°48' W 122°19'1 1.1
2017-Jan-17 00:33N 37°49' W 122°19'1 0.9
2017-Jan-16 23:34N 37°49' W 122°19'0 0.0
2017-Jan-16 22:33N 37°49' W 122°19'0 0.0
2017-Jan-16 21:33N 37°49' W 122°19'0 0.0
2017-Jan-16 20:34N 37°49' W 122°19'0 0.0
2017-Jan-16 19:33N 37°49' W 122°19'0 0.0
2017-Jan-16 18:34N 37°49' W 122°19'0 0.0
2017-Jan-16 17:33N 37°49' W 122°19'0 0.0
2017-Jan-16 16:34N 37°49' W 122°19'0 0.0
2017-Jan-16 15:34N 37°49' W 122°19'1 1.2
2017-Jan-16 14:33N 37°49' W 122°20'6 6.4
2017-Jan-16 13:33N 37°55' W 122°23'1 1.2
2017-Jan-16 12:34N 37°55' W 122°22'0 0.2
2017-Jan-16 11:33N 37°55' W 122°22'6 6.0
2017-Jan-16 10:33N 38°01' W 122°23'12 0.4
2017-Jan-15 00:25N 38°02' W 122°08'1 0.1
2017-Jan-14 19:06N 38°03' W 122°08'1 0.4
2017-Jan-14 17:16N 38°02' W 122°08'0 0.2
2017-Jan-14 16:34N 38°02' W 122°08'1 0.2
2017-Jan-14 13:25N 38°02' W 122°08'0 0.0
2017-Jan-14 12:31N 38°02' W 122°08'0 0.0
2017-Jan-14 11:32N 38°02' W 122°08'0 0.0
2017-Jan-14 10:08N 38°02' W 122°08'0 0.0
2017-Jan-14 09:32N 38°02' W 122°08'0 0.0
2017-Jan-14 08:33N 38°02' W 122°08'0 0.0
2017-Jan-14 07:21N 38°02' W 122°08'0 0.0
2017-Jan-13 20:33N 38°02' W 122°08'0 0.4
2017-Jan-13 19:18N 38°03' W 122°08'2 1.8
2017-Jan-13 18:14N 38°02' W 122°10'1 0.8
2017-Jan-13 16:33N 38°02' W 122°08'6 6.6
2017-Jan-13 15:34N 38°03' W 122°16'8 8.4
2017-Jan-13 14:33N 37°59' W 122°25'5 4.6
2017-Jan-13 13:34N 37°54' W 122°23'0 0.0
2017-Jan-13 12:33N 37°55' W 122°23'0 0.0
2017-Jan-13 11:33N 37°55' W 122°23'1 1.2
2017-Jan-13 10:33N 37°55' W 122°22'2 2.4
2017-Jan-13 09:33N 37°55' W 122°25'0 0.2
2017-Jan-13 08:33N 37°55' W 122°25'8 7.8
2017-Jan-13 07:34N 37°49' W 122°20'2 1.5
2017-Jan-13 06:33N 37°49' W 122°19'0 0.0
2017-Jan-13 05:33N 37°49' W 122°19'0 0.0
2017-Jan-13 04:33N 37°49' W 122°19'0 0.0
2017-Jan-13 03:34N 37°49' W 122°19'0 0.0
2017-Jan-13 02:33N 37°49' W 122°19'1 1.1
2017-Jan-13 01:33N 37°49' W 122°20'2 2.4
2017-Jan-13 00:33N 37°48' W 122°17'2 2.2
2017-Jan-12 23:34N 37°49' W 122°19'1 0.6
2017-Jan-12 22:33N 37°49' W 122°19'2 1.6
2017-Jan-12 21:34N 37°48' W 122°20'2 1.7
2017-Jan-12 20:33N 37°49' W 122°19'0 0.0
2017-Jan-12 19:33N 37°49' W 122°19'0 0.0
2017-Jan-12 18:33N 37°49' W 122°19'2 2.0
2017-Jan-12 17:34N 37°48' W 122°18'1 1.0
2017-Jan-12 16:33N 37°48' W 122°19'1 1.3
2017-Jan-12 15:33N 37°49' W 122°19'0 0.3
2017-Jan-12 14:33N 37°49' W 122°20'1 0.7
2017-Jan-12 13:34N 37°48' W 122°21'0 0.0
2017-Jan-12 12:33N 37°48' W 122°21'1 0.7
2017-Jan-12 11:33N 37°49' W 122°20'5 4.8
2017-Jan-12 10:33N 37°44' W 122°21'6 6.2
2017-Jan-12 09:33N 37°50' W 122°24'10 9.8
2017-Jan-12 08:33N 37°59' W 122°25'8 8.2
2017-Jan-12 07:33N 38°04' W 122°17'7 0.7
2017-Jan-11 21:33N 38°02' W 122°08'0 0.0
2017-Jan-11 20:15N 38°02' W 122°08'5 5.4
2017-Jan-11 19:24N 38°04' W 122°13'4 1.1
2017-Jan-11 15:27N 38°02' W 122°08'  

Dump ship's entire track history